Terminal Aerodrome Forecast
Issued by NWS

Home | Current Version | Previous Version | Text Only | Print | Product List | Glossary On
Versions: 1 2 3 4 5 6 7 8 9 10 11 12 13 14 15
000
FTUS42 TJSJ 291120
TAFJBQ
TAF
TJBQ 291120Z 2912/3012 00000KT P6SM SCT080
     FM291630 07013KT P6SM VCTS SCT030CB BKN040
     FM292330 10005KT P6SM VCSH SCT025
      AMD NOT SKED 3002/3011=

USA.gov is the U.S. government's official web portal to all federal, state and local government web resources and services.